aviador You're here:

KPNS Decoded Metar

PENSACOLA in FL, USA
Report Time2017-11-25 04:53:00
UTC Time2017-11-25 05:32:29
Flight Rules vfr VFR
Wind300° at 03 kt
W.Decomp.*RWY 26: 2.2 kt HW 2.0 kt RCW
RWY 35: 2.0 kt HW 2.2 kt LCW
W.Rank300° ranks 33
Current wind is below 300° avg. (6.4)
Visibility9999 m
Phenomena:N/A
Clouds:N/A
Expected CloudBase > 800 ft AGL from Temp-Dew spread
CeilingNone
Temp12°C (ISA -3)
Dew Point10°C (88% RH)
AAT11.0°C
QNH1016 hPa
Density Alt-138 ft
Elevation125 ft
Report Wrong Elevation
Raw Report
KPNS 250453Z AUTO 30003KT 10SM CLR 12/10 A3000 RMK AO2 SLP159
T01220100=

Extra information for KPNS:More info

Metar Taf Metar & Taf Last 4 Metars F.Rules Stats Wind Profile Meteogram Temp Stats Airport Information Weather charts Add Link Nearby VenuesMetar ALERT Operation Metar Decoded Social comments

AIRNAV info for KPNS